This is the latest recevied weather packets stored in our database for station/object KG4GJX. If no packets are shown the sender has not sent any weather packets the latest 10 day(s).
| Time | Temp. | Humidity | Pressure | Rain* | Wind** | Luminosity | Snow |
|---|---|---|---|---|---|---|---|
| 1777223703 | 22.78° C | 74% | 1014.2 hPa | 0 mm | - | - | - |
| 1777223040 | 23.33° C | 67% | 1014.2 hPa | 0 mm | - | - | - |
| 1777222378 | 22.78° C | 70% | 1014.2 hPa | 0 mm | - | - | - |
| 1777221716 | 23.33° C | 70% | 1014.5 hPa | 0 mm | - | - | - |
| 1777221053 | 22.78° C | 74% | 1014.5 hPa | 0 mm | - | - | - |
| 1777220391 | 22.22° C | 76% | 1014.5 hPa | 0 mm | - | - | - |
| 1777219728 | 22.22° C | 79% | 1014.5 hPa | 0 mm | - | - | - |
| 1777219066 | 22.78° C | 78% | 1014.5 hPa | 0 mm | - | - | - |
| 1777218404 | 21.67° C | 83% | 1014.5 hPa | 0 mm | - | - | - |
| 1777217742 | 21.11° C | 88% | 1014.5 hPa | 0 mm | - | - | - |
| 1777217079 | 20.56° C | 89% | 1014.2 hPa | 0 mm | - | - | - |
| 1777216417 | 20° C | 93% | 1014.2 hPa | 0 mm | - | - | - |
| 1777215754 | 20° C | 93% | 1014.2 hPa | 0 mm | - | - | - |
| 1777215092 | 19.44° C | 94% | 1013.8 hPa | 0 mm | - | - | - |
| 1777214430 | 19.44° C | 97% | 1013.8 hPa | 0 mm | - | - | - |
| 1777213767 | 18.89° C | 97% | 1013.5 hPa | 0 mm | - | - | - |
| 1777213105 | 18.89° C | 100% | 1013.5 hPa | 0 mm | - | - | - |
| 1777212442 | 17.78° C | 100% | 1013.5 hPa | 0 mm | - | - | - |
| 1777211780 | 17.78° C | 100% | 1013.5 hPa | 0 mm | - | - | - |
| 1777211118 | 17.22° C | 100% | 1013.5 hPa | 0 mm | - | - | - |
| 1777210455 | 16.67° C | 100% | 1013.2 hPa | 0 mm | - | - | - |
| 1777209793 | 16.67° C | 100% | 1013.5 hPa | 0 mm | - | - | - |
| 1777209130 | 16.67° C | 100% | 1013.5 hPa | 0 mm | - | - | - |
| 1777208468 | 16.67° C | 100% | 1013.5 hPa | 0 mm | - | - | - |
| 1777207806 | 16.11° C | 100% | 1013.2 hPa | 0 mm | - | - | - |
* Rain latest hour (hover to see other rain measurements)
** Current wind speed in m/s (hover to see current wind gust speed)